sensor_id;sensor_type;location;lat;lon;timestamp;P1;durP1;ratioP1;P2;durP2;ratioP2
16015;SDS011;8112;53.592;10.184;2022-12-16T00:01:33;26.20;;;18.33;;
16015;SDS011;8112;53.592;10.184;2022-12-16T00:06:38;23.73;;;17.33;;
16015;SDS011;8112;53.592;10.184;2022-12-16T00:11:42;24.40;;;17.93;;
16015;SDS011;8112;53.592;10.184;2022-12-16T00:16:43;27.77;;;18.93;;
16015;SDS011;8112;53.592;10.184;2022-12-16T00:21:48;22.73;;;16.93;;
16015;SDS011;8112;53.592;10.184;2022-12-16T00:26:50;26.20;;;19.37;;
16015;SDS011;8112;53.592;10.184;2022-12-16T00:31:52;23.73;;;17.47;;
16015;SDS011;8112;53.592;10.184;2022-12-16T00:36:56;29.13;;;19.07;;
16015;SDS011;8112;53.592;10.184;2022-12-16T00:41:58;24.80;;;18.43;;
16015;SDS011;8112;53.592;10.184;2022-12-16T00:47:00;25.40;;;17.97;;
16015;SDS011;8112;53.592;10.184;2022-12-16T00:52:06;25.67;;;18.63;;
16015;SDS011;8112;53.592;10.184;2022-12-16T00:57:09;28.60;;;18.70;;
16015;SDS011;8112;53.592;10.184;2022-12-16T01:02:11;24.63;;;18.63;;
16015;SDS011;8112;53.592;10.184;2022-12-16T01:07:14;28.60;;;18.77;;
16015;SDS011;8112;53.592;10.184;2022-12-16T01:12:17;24.97;;;18.07;;
16015;SDS011;8112;53.592;10.184;2022-12-16T01:17:20;26.37;;;18.77;;
16015;SDS011;8112;53.592;10.184;2022-12-16T01:22:23;26.17;;;18.07;;
16015;SDS011;8112;53.592;10.184;2022-12-16T01:27:26;26.83;;;18.63;;
16015;SDS011;8112;53.592;10.184;2022-12-16T01:32:30;26.60;;;19.50;;
16015;SDS011;8112;53.592;10.184;2022-12-16T01:37:33;27.33;;;18.93;;
16015;SDS011;8112;53.592;10.184;2022-12-16T01:42:36;29.00;;;19.90;;
16015;SDS011;8112;53.592;10.184;2022-12-16T01:47:39;25.57;;;17.93;;
16015;SDS011;8112;53.592;10.184;2022-12-16T01:52:43;26.27;;;18.80;;
16015;SDS011;8112;53.592;10.184;2022-12-16T01:57:56;26.23;;;18.00;;
16015;SDS011;8112;53.592;10.184;2022-12-16T02:03:03;26.13;;;18.30;;
16015;SDS011;8112;53.592;10.184;2022-12-16T02:08:11;25.93;;;18.20;;
16015;SDS011;8112;53.592;10.184;2022-12-16T02:13:18;26.47;;;18.63;;
16015;SDS011;8112;53.592;10.184;2022-12-16T02:18:29;25.40;;;18.00;;
16015;SDS011;8112;53.592;10.184;2022-12-16T02:23:58;31.00;;;18.90;;
16015;SDS011;8112;53.592;10.184;2022-12-16T02:29:26;27.00;;;18.97;;
16015;SDS011;8112;53.592;10.184;2022-12-16T02:34:47;23.90;;;18.13;;
16015;SDS011;8112;53.592;10.184;2022-12-16T02:39:58;26.10;;;18.97;;
16015;SDS011;8112;53.592;10.184;2022-12-16T02:45:03;25.97;;;19.50;;
16015;SDS011;8112;53.592;10.184;2022-12-16T02:50:19;29.33;;;19.57;;
16015;SDS011;8112;53.592;10.184;2022-12-16T02:55:26;31.53;;;21.30;;
16015;SDS011;8112;53.592;10.184;2022-12-16T03:00:37;32.77;;;21.27;;
16015;SDS011;8112;53.592;10.184;2022-12-16T03:05:50;30.43;;;20.80;;
16015;SDS011;8112;53.592;10.184;2022-12-16T03:10:55;30.93;;;20.17;;
16015;SDS011;8112;53.592;10.184;2022-12-16T03:16:00;29.80;;;20.83;;
16015;SDS011;8112;53.592;10.184;2022-12-16T03:21:07;26.60;;;19.50;;
16015;SDS011;8112;53.592;10.184;2022-12-16T03:26:14;26.83;;;19.13;;
16015;SDS011;8112;53.592;10.184;2022-12-16T03:31:25;30.63;;;19.60;;
16015;SDS011;8112;53.592;10.184;2022-12-16T03:36:38;27.37;;;19.77;;
16015;SDS011;8112;53.592;10.184;2022-12-16T03:41:42;27.60;;;18.57;;
16015;SDS011;8112;53.592;10.184;2022-12-16T03:46:46;28.77;;;18.77;;
16015;SDS011;8112;53.592;10.184;2022-12-16T03:51:57;30.03;;;19.77;;
16015;SDS011;8112;53.592;10.184;2022-12-16T03:56:59;31.13;;;20.33;;
16015;SDS011;8112;53.592;10.184;2022-12-16T04:02:02;28.60;;;19.20;;
16015;SDS011;8112;53.592;10.184;2022-12-16T04:07:07;28.60;;;19.57;;
16015;SDS011;8112;53.592;10.184;2022-12-16T04:12:22;29.23;;;18.67;;
16015;SDS011;8112;53.592;10.184;2022-12-16T04:17:42;27.80;;;19.03;;
16015;SDS011;8112;53.592;10.184;2022-12-16T04:23:03;27.20;;;19.77;;
16015;SDS011;8112;53.592;10.184;2022-12-16T04:28:23;25.97;;;20.10;;
16015;SDS011;8112;53.592;10.184;2022-12-16T04:33:25;27.97;;;19.63;;
16015;SDS011;8112;53.592;10.184;2022-12-16T04:38:46;31.63;;;22.00;;
16015;SDS011;8112;53.592;10.184;2022-12-16T04:44:05;29.40;;;20.90;;
16015;SDS011;8112;53.592;10.184;2022-12-16T04:49:24;29.77;;;20.83;;
16015;SDS011;8112;53.592;10.184;2022-12-16T04:54:45;27.33;;;19.37;;
16015;SDS011;8112;53.592;10.184;2022-12-16T05:00:05;31.10;;;21.60;;
16015;SDS011;8112;53.592;10.184;2022-12-16T05:05:26;30.97;;;20.87;;
16015;SDS011;8112;53.592;10.184;2022-12-16T05:10:47;33.17;;;21.20;;
16015;SDS011;8112;53.592;10.184;2022-12-16T05:16:09;31.00;;;20.40;;
16015;SDS011;8112;53.592;10.184;2022-12-16T05:21:29;30.60;;;20.17;;
16015;SDS011;8112;53.592;10.184;2022-12-16T05:26:46;29.93;;;20.40;;
16015;SDS011;8112;53.592;10.184;2022-12-16T05:32:06;30.03;;;20.67;;
16015;SDS011;8112;53.592;10.184;2022-12-16T05:37:25;28.93;;;20.10;;
16015;SDS011;8112;53.592;10.184;2022-12-16T05:42:48;32.43;;;21.70;;
16015;SDS011;8112;53.592;10.184;2022-12-16T05:48:04;30.40;;;20.33;;
16015;SDS011;8112;53.592;10.184;2022-12-16T05:53:23;27.80;;;19.23;;
16015;SDS011;8112;53.592;10.184;2022-12-16T05:58:44;31.87;;;20.67;;
16015;SDS011;8112;53.592;10.184;2022-12-16T06:04:03;36.67;;;21.47;;
16015;SDS011;8112;53.592;10.184;2022-12-16T06:09:23;27.93;;;19.07;;
16015;SDS011;8112;53.592;10.184;2022-12-16T06:14:45;33.90;;;21.17;;
16015;SDS011;8112;53.592;10.184;2022-12-16T06:20:05;32.47;;;20.70;;
16015;SDS011;8112;53.592;10.184;2022-12-16T06:25:26;30.70;;;21.10;;
16015;SDS011;8112;53.592;10.184;2022-12-16T06:30:47;34.67;;;21.13;;
16015;SDS011;8112;53.592;10.184;2022-12-16T06:36:06;31.77;;;20.93;;
16015;SDS011;8112;53.592;10.184;2022-12-16T06:41:26;33.23;;;21.37;;
16015;SDS011;8112;53.592;10.184;2022-12-16T06:46:48;38.30;;;25.00;;
16015;SDS011;8112;53.592;10.184;2022-12-16T06:52:08;38.77;;;24.93;;
16015;SDS011;8112;53.592;10.184;2022-12-16T06:57:28;35.30;;;24.33;;
16015;SDS011;8112;53.592;10.184;2022-12-16T07:02:49;33.23;;;23.07;;
16015;SDS011;8112;53.592;10.184;2022-12-16T07:08:09;31.87;;;22.60;;
16015;SDS011;8112;53.592;10.184;2022-12-16T07:13:28;34.30;;;23.13;;
16015;SDS011;8112;53.592;10.184;2022-12-16T07:18:49;52.33;;;31.03;;
16015;SDS011;8112;53.592;10.184;2022-12-16T07:24:08;36.10;;;25.23;;
16015;SDS011;8112;53.592;10.184;2022-12-16T07:29:28;33.17;;;23.17;;
16015;SDS011;8112;53.592;10.184;2022-12-16T07:34:49;31.37;;;22.37;;
16015;SDS011;8112;53.592;10.184;2022-12-16T07:40:09;32.03;;;23.10;;
16015;SDS011;8112;53.592;10.184;2022-12-16T07:45:30;30.93;;;22.13;;
16015;SDS011;8112;53.592;10.184;2022-12-16T07:50:59;35.50;;;22.80;;
16015;SDS011;8112;53.592;10.184;2022-12-16T07:56:18;33.67;;;22.73;;
16015;SDS011;8112;53.592;10.184;2022-12-16T08:01:39;35.97;;;22.87;;
16015;SDS011;8112;53.592;10.184;2022-12-16T08:07:02;35.97;;;23.07;;
16015;SDS011;8112;53.592;10.184;2022-12-16T08:12:21;32.33;;;23.87;;
16015;SDS011;8112;53.592;10.184;2022-12-16T08:17:46;38.13;;;25.67;;
16015;SDS011;8112;53.592;10.184;2022-12-16T08:23:11;46.93;;;31.23;;
16015;SDS011;8112;53.592;10.184;2022-12-16T08:28:30;48.23;;;29.93;;
16015;SDS011;8112;53.592;10.184;2022-12-16T08:33:51;36.53;;;26.53;;
16015;SDS011;8112;53.592;10.184;2022-12-16T08:39:12;35.90;;;25.90;;
16015;SDS011;8112;53.592;10.184;2022-12-16T08:44:32;33.13;;;22.97;;
16015;SDS011;8112;53.592;10.184;2022-12-16T08:49:55;35.97;;;24.03;;
16015;SDS011;8112;53.592;10.184;2022-12-16T08:55:16;34.50;;;24.83;;
16015;SDS011;8112;53.592;10.184;2022-12-16T09:00:32;37.73;;;25.73;;
16015;SDS011;8112;53.592;10.184;2022-12-16T09:05:56;37.53;;;24.30;;
16015;SDS011;8112;53.592;10.184;2022-12-16T09:11:17;34.20;;;23.33;;
16015;SDS011;8112;53.592;10.184;2022-12-16T09:16:38;37.17;;;24.97;;
16015;SDS011;8112;53.592;10.184;2022-12-16T09:21:59;40.83;;;25.50;;
16015;SDS011;8112;53.592;10.184;2022-12-16T09:27:20;37.27;;;24.17;;
16015;SDS011;8112;53.592;10.184;2022-12-16T09:32:40;38.80;;;25.57;;
16015;SDS011;8112;53.592;10.184;2022-12-16T09:37:59;34.10;;;24.23;;
16015;SDS011;8112;53.592;10.184;2022-12-16T09:43:29;35.10;;;24.73;;
16015;SDS011;8112;53.592;10.184;2022-12-16T09:49:05;34.33;;;23.43;;
16015;SDS011;8112;53.592;10.184;2022-12-16T09:54:34;33.60;;;23.87;;
16015;SDS011;8112;53.592;10.184;2022-12-16T10:00:00;36.40;;;24.77;;
16015;SDS011;8112;53.592;10.184;2022-12-16T10:05:23;35.93;;;24.93;;
16015;SDS011;8112;53.592;10.184;2022-12-16T10:10:58;35.20;;;24.53;;
16015;SDS011;8112;53.592;10.184;2022-12-16T10:16:25;33.87;;;24.17;;
16015;SDS011;8112;53.592;10.184;2022-12-16T10:21:52;35.03;;;24.60;;
16015;SDS011;8112;53.592;10.184;2022-12-16T10:27:20;31.93;;;23.30;;
16015;SDS011;8112;53.592;10.184;2022-12-16T10:32:52;31.13;;;23.37;;
16015;SDS011;8112;53.592;10.184;2022-12-16T10:38:13;36.03;;;25.23;;
16015;SDS011;8112;53.592;10.184;2022-12-16T10:43:42;35.47;;;24.57;;
16015;SDS011;8112;53.592;10.184;2022-12-16T10:49:06;34.63;;;24.77;;
16015;SDS011;8112;53.592;10.184;2022-12-16T10:54:31;37.00;;;25.67;;
16015;SDS011;8112;53.592;10.184;2022-12-16T11:00:07;32.50;;;23.80;;
16015;SDS011;8112;53.592;10.184;2022-12-16T11:05:30;35.53;;;24.33;;
16015;SDS011;8112;53.592;10.184;2022-12-16T11:10:51;35.10;;;24.27;;
16015;SDS011;8112;53.592;10.184;2022-12-16T11:16:11;35.30;;;24.50;;
16015;SDS011;8112;53.592;10.184;2022-12-16T11:21:35;34.57;;;24.90;;
16015;SDS011;8112;53.592;10.184;2022-12-16T11:26:55;35.63;;;25.53;;
16015;SDS011;8112;53.592;10.184;2022-12-16T11:32:17;34.43;;;25.60;;
16015;SDS011;8112;53.592;10.184;2022-12-16T11:37:48;39.00;;;26.67;;
16015;SDS011;8112;53.592;10.184;2022-12-16T11:43:10;35.50;;;26.43;;
16015;SDS011;8112;53.592;10.184;2022-12-16T11:48:33;37.57;;;25.13;;
16015;SDS011;8112;53.592;10.184;2022-12-16T11:54:03;37.33;;;26.60;;
16015;SDS011;8112;53.592;10.184;2022-12-16T11:59:30;35.23;;;24.90;;
16015;SDS011;8112;53.592;10.184;2022-12-16T12:04:58;35.73;;;24.20;;
16015;SDS011;8112;53.592;10.184;2022-12-16T12:10:50;38.67;;;26.67;;
16015;SDS011;8112;53.592;10.184;2022-12-16T12:16:25;38.57;;;26.97;;
16015;SDS011;8112;53.592;10.184;2022-12-16T12:21:54;36.53;;;26.37;;
16015;SDS011;8112;53.592;10.184;2022-12-16T12:27:23;41.63;;;27.33;;
16015;SDS011;8112;53.592;10.184;2022-12-16T12:32:55;36.03;;;25.80;;
16015;SDS011;8112;53.592;10.184;2022-12-16T12:38:25;36.20;;;26.67;;
16015;SDS011;8112;53.592;10.184;2022-12-16T12:43:57;42.93;;;26.83;;
16015;SDS011;8112;53.592;10.184;2022-12-16T12:49:28;39.47;;;26.80;;
16015;SDS011;8112;53.592;10.184;2022-12-16T12:54:51;40.83;;;28.23;;
16015;SDS011;8112;53.592;10.184;2022-12-16T13:00:21;37.67;;;28.20;;
16015;SDS011;8112;53.592;10.184;2022-12-16T13:05:42;37.77;;;27.20;;
16015;SDS011;8112;53.592;10.184;2022-12-16T13:11:10;36.63;;;26.53;;
16015;SDS011;8112;53.592;10.184;2022-12-16T13:22:26;42.60;;;29.10;;
16015;SDS011;8112;53.592;10.184;2022-12-16T13:27:53;43.40;;;28.50;;
16015;SDS011;8112;53.592;10.184;2022-12-16T13:33:24;39.93;;;27.07;;
16015;SDS011;8112;53.592;10.184;2022-12-16T13:38:48;39.07;;;27.73;;
16015;SDS011;8112;53.592;10.184;2022-12-16T13:44:10;42.70;;;29.00;;
16015;SDS011;8112;53.592;10.184;2022-12-16T13:55:13;41.40;;;27.53;;
16015;SDS011;8112;53.592;10.184;2022-12-16T14:00:37;37.87;;;27.43;;
16015;SDS011;8112;53.592;10.184;2022-12-16T14:06:01;47.67;;;32.30;;
16015;SDS011;8112;53.592;10.184;2022-12-16T14:11:28;40.80;;;28.10;;
16015;SDS011;8112;53.592;10.184;2022-12-16T14:16:57;38.37;;;27.03;;
16015;SDS011;8112;53.592;10.184;2022-12-16T14:22:28;38.23;;;27.90;;
16015;SDS011;8112;53.592;10.184;2022-12-16T14:28:00;41.30;;;29.13;;
16015;SDS011;8112;53.592;10.184;2022-12-16T14:33:27;43.20;;;32.57;;
16015;SDS011;8112;53.592;10.184;2022-12-16T14:38:49;44.37;;;30.23;;
16015;SDS011;8112;53.592;10.184;2022-12-16T14:44:14;41.63;;;29.17;;
16015;SDS011;8112;53.592;10.184;2022-12-16T14:49:36;42.83;;;28.33;;
16015;SDS011;8112;53.592;10.184;2022-12-16T14:55:16;39.30;;;28.43;;
16015;SDS011;8112;53.592;10.184;2022-12-16T15:00:37;38.43;;;27.13;;
16015;SDS011;8112;53.592;10.184;2022-12-16T15:05:57;42.40;;;29.87;;
16015;SDS011;8112;53.592;10.184;2022-12-16T15:11:21;42.23;;;29.07;;
16015;SDS011;8112;53.592;10.184;2022-12-16T15:16:41;40.47;;;28.20;;
16015;SDS011;8112;53.592;10.184;2022-12-16T15:22:02;41.43;;;28.67;;
16015;SDS011;8112;53.592;10.184;2022-12-16T15:27:26;57.00;;;38.50;;
16015;SDS011;8112;53.592;10.184;2022-12-16T15:32:52;47.03;;;33.27;;
16015;SDS011;8112;53.592;10.184;2022-12-16T15:38:15;51.50;;;34.77;;
16015;SDS011;8112;53.592;10.184;2022-12-16T15:43:43;50.17;;;32.10;;
16015;SDS011;8112;53.592;10.184;2022-12-16T15:49:04;48.53;;;30.20;;
16015;SDS011;8112;53.592;10.184;2022-12-16T15:54:25;44.70;;;30.20;;
16015;SDS011;8112;53.592;10.184;2022-12-16T15:59:57;52.83;;;31.97;;
16015;SDS011;8112;53.592;10.184;2022-12-16T16:05:18;48.83;;;33.50;;
16015;SDS011;8112;53.592;10.184;2022-12-16T16:10:45;50.70;;;32.70;;
16015;SDS011;8112;53.592;10.184;2022-12-16T16:16:07;52.43;;;34.17;;
16015;SDS011;8112;53.592;10.184;2022-12-16T16:21:28;52.13;;;33.83;;
16015;SDS011;8112;53.592;10.184;2022-12-16T16:26:51;49.53;;;31.57;;
16015;SDS011;8112;53.592;10.184;2022-12-16T16:32:13;43.73;;;31.60;;
16015;SDS011;8112;53.592;10.184;2022-12-16T16:37:32;48.53;;;32.70;;
16015;SDS011;8112;53.592;10.184;2022-12-16T16:42:51;42.17;;;30.53;;
16015;SDS011;8112;53.592;10.184;2022-12-16T16:48:15;47.97;;;31.40;;
16015;SDS011;8112;53.592;10.184;2022-12-16T16:53:37;52.17;;;35.73;;
16015;SDS011;8112;53.592;10.184;2022-12-16T16:58:56;53.40;;;35.23;;
16015;SDS011;8112;53.592;10.184;2022-12-16T17:04:19;51.50;;;33.47;;
16015;SDS011;8112;53.592;10.184;2022-12-16T17:09:39;50.33;;;32.63;;
16015;SDS011;8112;53.592;10.184;2022-12-16T17:14:59;47.27;;;32.33;;
16015;SDS011;8112;53.592;10.184;2022-12-16T17:20:20;51.63;;;33.80;;
16015;SDS011;8112;53.592;10.184;2022-12-16T17:25:40;50.50;;;33.97;;
16015;SDS011;8112;53.592;10.184;2022-12-16T17:31:00;50.97;;;34.37;;
16015;SDS011;8112;53.592;10.184;2022-12-16T17:36:22;57.80;;;40.47;;
16015;SDS011;8112;53.592;10.184;2022-12-16T17:41:41;54.73;;;37.13;;
16015;SDS011;8112;53.592;10.184;2022-12-16T17:47:01;54.80;;;36.97;;
16015;SDS011;8112;53.592;10.184;2022-12-16T17:52:22;53.57;;;36.13;;
16015;SDS011;8112;53.592;10.184;2022-12-16T17:57:41;51.50;;;34.97;;
16015;SDS011;8112;53.592;10.184;2022-12-16T18:03:02;46.40;;;33.50;;
16015;SDS011;8112;53.592;10.184;2022-12-16T18:08:24;54.27;;;35.53;;
16015;SDS011;8112;53.592;10.184;2022-12-16T18:13:43;55.03;;;36.53;;
16015;SDS011;8112;53.592;10.184;2022-12-16T18:19:03;54.63;;;37.33;;
16015;SDS011;8112;53.592;10.184;2022-12-16T18:24:25;61.63;;;39.13;;
16015;SDS011;8112;53.592;10.184;2022-12-16T18:29:45;57.83;;;37.87;;
16015;SDS011;8112;53.592;10.184;2022-12-16T18:35:08;58.37;;;40.87;;
16015;SDS011;8112;53.592;10.184;2022-12-16T18:40:29;60.13;;;37.17;;
16015;SDS011;8112;53.592;10.184;2022-12-16T18:45:50;58.87;;;40.03;;
16015;SDS011;8112;53.592;10.184;2022-12-16T18:51:10;60.00;;;40.23;;
16015;SDS011;8112;53.592;10.184;2022-12-16T18:56:31;55.03;;;37.27;;
16015;SDS011;8112;53.592;10.184;2022-12-16T19:01:51;59.00;;;38.33;;
16015;SDS011;8112;53.592;10.184;2022-12-16T19:07:10;62.60;;;38.87;;
16015;SDS011;8112;53.592;10.184;2022-12-16T19:12:31;61.57;;;42.57;;
16015;SDS011;8112;53.592;10.184;2022-12-16T19:17:51;62.97;;;41.00;;
16015;SDS011;8112;53.592;10.184;2022-12-16T19:23:12;63.23;;;42.60;;
16015;SDS011;8112;53.592;10.184;2022-12-16T19:28:39;63.43;;;41.70;;
16015;SDS011;8112;53.592;10.184;2022-12-16T19:33:58;60.93;;;42.00;;
16015;SDS011;8112;53.592;10.184;2022-12-16T19:39:18;63.40;;;42.83;;
16015;SDS011;8112;53.592;10.184;2022-12-16T19:44:39;57.47;;;40.37;;
16015;SDS011;8112;53.592;10.184;2022-12-16T19:49:58;65.90;;;45.10;;
16015;SDS011;8112;53.592;10.184;2022-12-16T19:55:18;59.97;;;40.13;;
16015;SDS011;8112;53.592;10.184;2022-12-16T20:00:40;62.13;;;41.50;;
16015;SDS011;8112;53.592;10.184;2022-12-16T20:06:00;59.30;;;41.93;;
16015;SDS011;8112;53.592;10.184;2022-12-16T20:11:20;59.23;;;39.30;;
16015;SDS011;8112;53.592;10.184;2022-12-16T20:16:41;58.00;;;38.30;;
16015;SDS011;8112;53.592;10.184;2022-12-16T20:22:02;55.53;;;38.87;;
16015;SDS011;8112;53.592;10.184;2022-12-16T20:27:21;56.47;;;38.13;;
16015;SDS011;8112;53.592;10.184;2022-12-16T20:32:45;59.10;;;40.20;;
16015;SDS011;8112;53.592;10.184;2022-12-16T20:38:04;56.57;;;37.77;;
16015;SDS011;8112;53.592;10.184;2022-12-16T20:43:25;60.20;;;39.83;;
16015;SDS011;8112;53.592;10.184;2022-12-16T20:48:46;61.80;;;39.77;;
16015;SDS011;8112;53.592;10.184;2022-12-16T20:54:07;64.80;;;44.03;;
16015;SDS011;8112;53.592;10.184;2022-12-16T20:59:28;70.50;;;48.03;;
16015;SDS011;8112;53.592;10.184;2022-12-16T21:04:54;64.73;;;45.70;;
16015;SDS011;8112;53.592;10.184;2022-12-16T21:10:14;65.60;;;43.53;;
16015;SDS011;8112;53.592;10.184;2022-12-16T21:15:31;56.00;;;37.97;;
16015;SDS011;8112;53.592;10.184;2022-12-16T21:20:52;58.50;;;41.13;;
16015;SDS011;8112;53.592;10.184;2022-12-16T21:26:11;66.50;;;43.67;;
16015;SDS011;8112;53.592;10.184;2022-12-16T21:31:30;73.87;;;43.73;;
16015;SDS011;8112;53.592;10.184;2022-12-16T21:36:52;61.33;;;42.37;;
16015;SDS011;8112;53.592;10.184;2022-12-16T21:42:11;53.67;;;39.67;;
16015;SDS011;8112;53.592;10.184;2022-12-16T21:47:36;59.13;;;40.40;;
16015;SDS011;8112;53.592;10.184;2022-12-16T21:52:57;58.23;;;39.63;;
16015;SDS011;8112;53.592;10.184;2022-12-16T21:58:16;60.27;;;38.40;;
16015;SDS011;8112;53.592;10.184;2022-12-16T22:03:37;56.47;;;36.97;;
16015;SDS011;8112;53.592;10.184;2022-12-16T22:09:02;56.20;;;37.37;;
16015;SDS011;8112;53.592;10.184;2022-12-16T22:14:21;55.80;;;36.23;;
16015;SDS011;8112;53.592;10.184;2022-12-16T22:19:40;56.47;;;37.73;;
16015;SDS011;8112;53.592;10.184;2022-12-16T22:25:01;57.77;;;38.50;;
16015;SDS011;8112;53.592;10.184;2022-12-16T22:30:20;58.03;;;35.23;;
16015;SDS011;8112;53.592;10.184;2022-12-16T22:35:39;54.10;;;37.47;;
16015;SDS011;8112;53.592;10.184;2022-12-16T22:41:00;57.30;;;40.00;;
16015;SDS011;8112;53.592;10.184;2022-12-16T22:46:20;59.20;;;39.23;;
16015;SDS011;8112;53.592;10.184;2022-12-16T22:51:40;60.57;;;39.97;;
16015;SDS011;8112;53.592;10.184;2022-12-16T22:57:01;57.77;;;37.67;;
16015;SDS011;8112;53.592;10.184;2022-12-16T23:02:21;58.37;;;39.33;;
16015;SDS011;8112;53.592;10.184;2022-12-16T23:07:40;64.80;;;40.97;;
16015;SDS011;8112;53.592;10.184;2022-12-16T23:13:01;59.17;;;40.17;;
16015;SDS011;8112;53.592;10.184;2022-12-16T23:18:28;60.53;;;40.50;;
16015;SDS011;8112;53.592;10.184;2022-12-16T23:23:50;55.93;;;38.23;;
16015;SDS011;8112;53.592;10.184;2022-12-16T23:29:13;49.87;;;34.23;;
16015;SDS011;8112;53.592;10.184;2022-12-16T23:34:32;50.40;;;34.83;;
16015;SDS011;8112;53.592;10.184;2022-12-16T23:39:54;49.90;;;35.07;;
16015;SDS011;8112;53.592;10.184;2022-12-16T23:45:16;50.67;;;35.73;;
16015;SDS011;8112;53.592;10.184;2022-12-16T23:50:35;47.23;;;33.93;;
16015;SDS011;8112;53.592;10.184;2022-12-16T23:55:55;52.00;;;33.00;;
